createdAt,value
2022-12-13T00:02:00.085Z,-0.39
2022-12-13T00:04:28.545Z,-0.43
2022-12-13T00:06:56.920Z,-0.39
2022-12-13T00:09:24.941Z,-0.63
2022-12-13T00:11:53.650Z,-0.37
2022-12-13T00:14:21.604Z,-0.61
2022-12-13T00:16:50.672Z,-0.63
2022-12-13T00:19:19.666Z,-0.36
2022-12-13T00:21:47.801Z,-0.62
2022-12-13T00:24:16.366Z,-0.63
2022-12-13T00:26:44.503Z,-0.39
2022-12-13T00:29:12.919Z,-0.68
2022-12-13T00:32:00.644Z,-0.62
2022-12-13T00:34:29.504Z,-0.45
2022-12-13T00:37:00.543Z,-0.44
2022-12-13T00:39:29.002Z,-0.49
2022-12-13T00:41:57.923Z,-0.66
2022-12-13T00:44:26.771Z,-0.42
2022-12-13T00:46:54.925Z,-0.41
2022-12-13T00:49:23.669Z,-0.49
2022-12-13T00:51:51.943Z,-0.51
2022-12-13T00:54:20.296Z,-0.49
2022-12-13T00:56:48.628Z,-0.50
2022-12-13T00:59:16.664Z,-0.53
2022-12-13T01:01:45.308Z,-0.51
2022-12-13T01:04:13.917Z,-0.54
2022-12-13T01:06:46.592Z,-0.71
2022-12-13T01:09:22.778Z,-0.51
2022-12-13T01:11:51.710Z,-0.53
2022-12-13T01:14:20.379Z,-0.57
2022-12-13T01:16:48.384Z,-0.56
2022-12-13T01:19:16.757Z,-0.82
2022-12-13T01:21:44.810Z,-0.57
2022-12-13T01:24:12.775Z,-0.60
2022-12-13T01:26:40.882Z,-0.53
2022-12-13T01:29:11.483Z,-0.79
2022-12-13T01:31:41.818Z,-0.64
2022-12-13T01:34:16.710Z,-0.90
2022-12-13T01:36:47.289Z,-0.62
2022-12-13T01:39:20.150Z,-0.73
2022-12-13T01:42:03.680Z,-0.97
2022-12-13T01:45:06.503Z,-0.76
2022-12-13T01:47:48.128Z,-0.80
2022-12-13T01:50:37.968Z,-0.81
2022-12-13T01:53:09.660Z,-0.83
2022-12-13T01:55:41.565Z,-1.11
2022-12-13T01:58:10.533Z,-0.93
2022-12-13T02:00:40.872Z,-0.91
2022-12-13T02:03:21.276Z,-0.79
2022-12-13T02:06:26.169Z,-0.82
2022-12-13T02:08:54.580Z,-0.80
2022-12-13T02:11:22.913Z,-1.01
2022-12-13T02:13:50.747Z,-0.79
2022-12-13T02:17:10.127Z,-0.77
2022-12-13T02:20:21.424Z,-0.79
2022-12-13T02:22:56.685Z,-0.82
2022-12-13T02:25:50.406Z,-0.82
2022-12-13T02:28:52.703Z,-0.83
2022-12-13T02:32:02.323Z,-0.76
2022-12-13T02:35:10.340Z,-0.74
2022-12-13T02:38:08.146Z,-0.79
2022-12-13T02:40:48.141Z,-0.77
2022-12-13T02:43:26.149Z,-0.96
2022-12-13T02:46:04.033Z,-0.81
2022-12-13T02:48:38.089Z,-0.83
2022-12-13T02:51:09.611Z,-0.79
2022-12-13T02:53:39.902Z,-1.02
2022-12-13T02:56:08.444Z,-0.78
2022-12-13T02:58:45.035Z,-0.99
2022-12-13T03:01:40.473Z,-0.77
2022-12-13T03:04:35.225Z,-1.04
2022-12-13T03:08:03.819Z,-0.76
2022-12-13T03:10:44.016Z,-0.82
2022-12-13T03:13:39.374Z,-0.80
2022-12-13T03:16:43.548Z,-0.76
2022-12-13T03:19:13.167Z,-0.82
2022-12-13T03:21:48.178Z,-1.00
2022-12-13T03:24:21.702Z,-0.78
2022-12-13T03:26:51.527Z,-1.04
2022-12-13T03:29:23.974Z,-0.80
2022-12-13T03:31:54.656Z,-1.03
2022-12-13T03:34:23.757Z,-0.84
2022-12-13T03:36:53.322Z,-0.91
2022-12-13T03:39:22.381Z,-0.91
2022-12-13T03:41:50.989Z,-1.19
2022-12-13T03:44:19.039Z,-0.99
2022-12-13T03:46:47.689Z,-0.99
2022-12-13T03:49:17.570Z,-1.31
2022-12-13T03:51:46.071Z,-1.00
2022-12-13T03:54:14.208Z,-1.08
2022-12-13T03:56:42.463Z,-1.00
2022-12-13T03:59:10.458Z,-1.08
2022-12-13T04:01:38.719Z,-1.08
2022-12-13T04:04:08.245Z,-1.00
2022-12-13T04:06:37.208Z,-1.33
2022-12-13T04:09:05.281Z,-1.01
2022-12-13T04:11:51.687Z,-1.00
2022-12-13T04:14:22.785Z,-1.02
2022-12-13T04:16:52.499Z,-1.28
2022-12-13T04:19:23.158Z,-1.32
2022-12-13T04:21:54.498Z,-1.03
2022-12-13T04:24:31.229Z,-1.07
2022-12-13T04:27:02.342Z,-1.06
2022-12-13T04:29:34.365Z,-1.10
2022-12-13T04:32:04.961Z,-1.06
2022-12-13T04:34:37.545Z,-1.10
2022-12-13T04:37:06.560Z,-1.31
2022-12-13T04:39:34.848Z,-1.16
2022-12-13T04:42:05.041Z,-1.17
2022-12-13T04:44:36.910Z,-1.27
2022-12-13T04:47:05.601Z,-1.36
2022-12-13T04:49:34.442Z,-1.23
2022-12-13T04:52:02.898Z,-1.26
2022-12-13T04:54:36.011Z,-1.52
2022-12-13T04:57:08.645Z,-1.29
2022-12-13T04:59:38.304Z,-1.51
2022-12-13T05:02:08.263Z,-1.45
2022-12-13T05:04:36.939Z,-1.31
2022-12-13T05:07:05.102Z,-1.27
2022-12-13T05:09:32.984Z,-1.29
2022-12-13T05:12:01.913Z,-1.23
2022-12-13T05:14:33.462Z,-1.55
2022-12-13T05:17:02.370Z,-1.44
2022-12-13T05:19:31.710Z,-1.32
2022-12-13T05:22:01.825Z,-1.31
2022-12-13T05:24:32.021Z,-1.33
2022-12-13T05:27:00.385Z,-1.40
2022-12-13T05:29:28.797Z,-1.33
2022-12-13T05:31:57.947Z,-1.59
2022-12-13T05:34:25.935Z,-1.30
2022-12-13T05:36:54.093Z,-1.52
2022-12-13T05:39:28.554Z,-1.39
2022-12-13T05:42:01.915Z,-1.36
2022-12-13T05:44:32.896Z,-1.32
2022-12-13T05:47:02.305Z,-1.30
2022-12-13T05:49:32.210Z,-1.34
2022-12-13T05:52:00.375Z,-1.37
2022-12-13T05:54:28.321Z,-1.59
2022-12-13T05:56:56.976Z,-1.62
2022-12-13T05:59:25.071Z,-1.64
2022-12-13T06:01:53.223Z,-1.40
2022-12-13T06:04:22.601Z,-1.39
2022-12-13T06:06:52.989Z,-1.60
2022-12-13T06:09:21.938Z,-1.40
2022-12-13T06:11:50.437Z,-1.40
2022-12-13T06:14:21.838Z,-1.40
2022-12-13T06:16:53.036Z,-1.40
2022-12-13T06:19:23.061Z,-1.33
2022-12-13T06:21:53.257Z,-1.62
2022-12-13T06:24:23.423Z,-1.42
2022-12-13T06:26:52.235Z,-1.44
2022-12-13T06:29:25.483Z,-1.43
2022-12-13T06:32:01.488Z,-1.58
2022-12-13T06:34:33.822Z,-1.52
2022-12-13T06:37:07.781Z,-1.64
2022-12-13T06:39:35.699Z,-1.50
2022-12-13T06:42:08.541Z,-1.44
2022-12-13T06:44:36.856Z,-1.39
2022-12-13T06:47:11.976Z,-1.49
2022-12-13T06:49:43.927Z,-1.44
2022-12-13T06:52:14.729Z,-1.72
2022-12-13T06:54:43.768Z,-1.47
2022-12-13T06:57:13.371Z,-1.49
2022-12-13T06:59:41.933Z,-1.47
2022-12-13T07:02:24.188Z,-1.52
2022-12-13T07:04:55.311Z,-1.48
2022-12-13T07:07:25.783Z,-1.54
2022-12-13T07:09:54.094Z,-1.51
2022-12-13T07:12:22.588Z,-1.48
2022-12-13T07:14:50.624Z,-1.56
2022-12-13T07:17:31.974Z,-1.48
2022-12-13T07:20:08.535Z,-1.82
2022-12-13T07:22:44.757Z,-1.51
2022-12-13T07:25:28.325Z,-1.98
2022-12-13T07:28:04.242Z,-1.73
2022-12-13T07:30:40.561Z,-1.45
2022-12-13T07:33:09.941Z,-1.40
2022-12-13T07:35:38.178Z,-1.53
2022-12-13T07:38:11.270Z,-1.44
2022-12-13T07:40:40.921Z,-1.36
2022-12-13T07:43:10.161Z,-1.37
2022-12-13T07:45:38.780Z,-1.42
2022-12-13T07:48:08.817Z,-1.34
2022-12-13T07:50:38.020Z,-1.33
2022-12-13T07:53:08.765Z,-1.62
2022-12-13T07:55:38.409Z,-1.41
2022-12-13T07:58:13.211Z,-1.50
2022-12-13T08:00:46.057Z,-1.59
2022-12-13T08:03:25.558Z,-1.86
2022-12-13T08:06:06.929Z,-1.56
2022-12-13T08:08:36.125Z,-1.55
2022-12-13T08:11:05.768Z,-1.48
2022-12-13T08:13:34.648Z,-1.55
2022-12-13T08:16:26.041Z,-1.45
2022-12-13T08:19:02.244Z,-1.44
2022-12-13T08:21:58.559Z,-1.43
2022-12-13T08:24:31.023Z,-1.43
2022-12-13T08:27:02.421Z,-1.55
2022-12-13T08:29:34.737Z,-1.78
2022-12-13T08:32:12.456Z,-1.54
2022-12-13T08:34:41.501Z,-1.79
2022-12-13T08:37:09.830Z,-1.53
2022-12-13T08:39:39.924Z,-1.56
2022-12-13T08:42:16.389Z,-1.54
2022-12-13T08:44:51.209Z,-1.58
2022-12-13T08:47:25.585Z,-1.58
2022-12-13T08:50:01.590Z,-1.48
2022-12-13T08:52:40.546Z,-1.73
2022-12-13T08:55:12.575Z,-1.46
2022-12-13T08:57:42.370Z,-1.40
2022-12-13T09:00:17.457Z,-1.47
2022-12-13T09:02:45.461Z,-1.46
2022-12-13T09:05:33.059Z,-1.46
2022-12-13T09:08:24.535Z,-1.34
2022-12-13T09:11:00.739Z,-1.46
2022-12-13T09:13:35.169Z,-1.37
2022-12-13T09:16:23.192Z,-1.52
2022-12-13T09:18:56.020Z,-1.77
2022-12-13T09:21:31.780Z,-1.77
2022-12-13T09:24:01.988Z,-1.49
2022-12-13T09:26:37.959Z,-1.48
2022-12-13T09:29:10.850Z,-1.46
2022-12-13T09:31:41.005Z,-1.83
2022-12-13T09:34:10.805Z,-1.73
2022-12-13T09:36:38.964Z,-1.51
2022-12-13T09:39:07.034Z,-1.57
2022-12-13T09:42:00.660Z,-1.29
2022-12-13T09:44:43.788Z,-1.22
2022-12-13T09:47:37.728Z,-1.23
2022-12-13T09:50:38.190Z,-1.17
2022-12-13T09:53:12.028Z,-1.26
2022-12-13T09:55:52.436Z,-1.74
2022-12-13T09:58:35.243Z,-1.73
2022-12-13T10:01:06.405Z,-1.48
2022-12-13T10:03:34.821Z,-1.51
2022-12-13T10:06:22.978Z,-1.37
2022-12-13T10:09:00.570Z,-1.50
2022-12-13T10:11:32.583Z,-1.60
2022-12-13T10:14:24.975Z,-1.63
2022-12-13T10:16:58.446Z,-1.52
2022-12-13T10:19:45.437Z,-1.63
2022-12-13T10:22:16.916Z,-1.77
2022-12-13T10:25:05.909Z,-1.58
2022-12-13T10:27:35.430Z,-1.59
2022-12-13T10:30:07.171Z,-1.67
2022-12-13T10:32:57.406Z,-1.74
2022-12-13T10:35:36.053Z,-1.96
2022-12-13T10:38:31.782Z,-1.89
2022-12-13T10:41:01.053Z,-1.52
2022-12-13T10:43:33.292Z,-1.57
2022-12-13T10:46:02.090Z,-1.56
2022-12-13T10:48:52.047Z,-1.73
2022-12-13T10:51:22.971Z,-1.45
2022-12-13T10:53:59.726Z,-1.57
2022-12-13T10:57:02.410Z,-1.78
2022-12-13T10:59:40.216Z,-1.49
2022-12-13T11:02:35.091Z,-1.43
2022-12-13T11:05:28.498Z,-2.00
2022-12-13T11:08:12.040Z,-1.44
2022-12-13T11:10:40.562Z,-1.46
2022-12-13T11:13:22.653Z,-1.09
2022-12-13T11:15:57.048Z,-1.00
2022-12-13T11:18:27.146Z,-1.14
2022-12-13T11:21:02.883Z,-0.99
2022-12-13T11:23:39.879Z,-1.03
2022-12-13T11:26:24.217Z,-1.18
2022-12-13T11:29:14.162Z,-1.08
2022-12-13T11:32:22.526Z,-1.15
2022-12-13T11:35:43.176Z,-1.09
2022-12-13T11:39:12.873Z,-1.16
2022-12-13T11:42:16.567Z,-1.13
2022-12-13T11:45:23.003Z,-1.18
2022-12-13T11:47:59.131Z,-1.45
2022-12-13T11:50:40.784Z,-1.28
2022-12-13T11:53:35.619Z,-1.26
2022-12-13T11:56:26.137Z,-1.28
2022-12-13T11:59:40.044Z,-1.26
2022-12-13T12:02:34.994Z,-1.30
2022-12-13T12:05:17.996Z,-1.48
2022-12-13T12:08:21.144Z,-1.51
2022-12-13T12:10:50.069Z,-1.84
2022-12-13T12:13:28.972Z,-1.70
2022-12-13T12:16:17.853Z,-1.96
2022-12-13T12:18:45.856Z,-1.77
2022-12-13T12:22:13.832Z,-1.81
2022-12-13T12:24:57.994Z,-1.91
2022-12-13T12:27:36.910Z,-2.17
2022-12-13T12:30:32.684Z,-2.07
2022-12-13T12:33:19.612Z,-2.13
2022-12-13T12:36:06.480Z,-1.92
2022-12-13T12:39:02.105Z,-1.90
2022-12-13T12:42:00.403Z,-1.89
2022-12-13T12:44:43.967Z,-2.04
2022-12-13T12:48:39.500Z,-1.85
2022-12-13T12:50:33.510Z,-2.04
2022-12-13T12:53:39.345Z,-2.05
2022-12-13T12:56:45.642Z,-1.82
2022-12-13T12:59:45.713Z,-1.67
2022-12-13T13:02:23.265Z,-1.84
2022-12-13T13:05:12.356Z,-2.04
2022-12-13T13:07:51.474Z,-2.10
2022-12-13T13:10:26.513Z,-2.21
2022-12-13T13:13:11.760Z,-2.21
2022-12-13T13:15:40.962Z,-2.09
2022-12-13T13:18:47.098Z,-2.43
2022-12-13T13:21:28.560Z,-2.28
2022-12-13T13:24:02.284Z,-2.03
2022-12-13T13:26:36.815Z,-2.10
2022-12-13T13:29:27.785Z,-2.22
2022-12-13T13:32:29.320Z,-2.47
2022-12-13T13:35:33.211Z,-2.81
2022-12-13T13:38:07.005Z,-3.09
2022-12-13T13:40:38.529Z,-3.42
2022-12-13T13:43:06.485Z,-3.29
2022-12-13T13:46:00.058Z,-3.37
2022-12-13T13:48:41.492Z,-3.34
2022-12-13T13:55:19.916Z,-3.48
2022-12-13T13:58:21.436Z,-3.60
2022-12-13T14:01:43.256Z,-3.95
2022-12-13T14:04:46.690Z,-3.94
2022-12-13T14:08:07.025Z,-4.13
2022-12-13T14:11:31.435Z,-4.21
2022-12-13T14:14:38.699Z,-4.09
2022-12-13T14:17:52.853Z,-4.05
2022-12-13T14:20:48.266Z,-4.13
2022-12-13T14:23:25.818Z,-3.67
2022-12-13T14:26:44.400Z,-3.56
2022-12-13T14:29:34.114Z,-3.57
2022-12-13T14:32:02.063Z,-3.53
2022-12-13T14:34:40.024Z,-3.61
2022-12-13T14:37:22.367Z,-3.99
2022-12-13T14:39:50.535Z,-4.02
2022-12-13T14:42:29.882Z,-3.85
2022-12-13T14:45:23.123Z,-4.18
2022-12-13T14:47:53.505Z,-3.95
2022-12-13T14:50:24.940Z,-4.27
2022-12-13T14:52:53.644Z,-4.28
2022-12-13T14:55:28.258Z,-4.28
2022-12-13T14:57:59.698Z,-4.43
2022-12-13T15:00:35.613Z,-4.79
2022-12-13T15:03:05.376Z,-4.89
2022-12-13T15:05:48.780Z,-5.17
2022-12-13T15:08:20.077Z,-5.38
2022-12-13T15:11:08.090Z,-6.09
2022-12-13T15:13:52.830Z,-5.74
2022-12-13T15:16:29.334Z,-5.86
2022-12-13T15:19:30.954Z,-6.80
2022-12-13T15:22:15.240Z,-5.78
2022-12-13T15:24:48.883Z,-5.86
2022-12-13T15:27:24.798Z,-6.02
2022-12-13T15:29:54.534Z,-5.94
2022-12-13T15:32:23.380Z,-6.51
2022-12-13T15:34:52.358Z,-6.61
2022-12-13T15:37:30.515Z,-6.45
2022-12-13T15:40:07.917Z,-6.60
2022-12-13T15:42:39.280Z,-7.02
2022-12-13T15:45:22.978Z,-6.71
2022-12-13T15:47:54.250Z,-6.69
2022-12-13T15:50:45.411Z,-6.50
2022-12-13T15:53:28.931Z,-6.53
2022-12-13T15:56:06.187Z,-6.35
2022-12-13T15:58:37.917Z,-6.41
2022-12-13T16:01:09.179Z,-6.54
2022-12-13T16:03:44.785Z,-6.42
2022-12-13T16:06:22.521Z,-6.43
2022-12-13T16:08:54.341Z,-6.54
2022-12-13T16:11:32.180Z,-6.46
2022-12-13T16:14:40.123Z,-6.78
2022-12-13T16:17:27.539Z,-6.42
2022-12-13T16:20:02.127Z,-6.34
2022-12-13T16:23:09.196Z,-6.39
2022-12-13T16:25:37.950Z,-5.97
2022-12-13T16:28:06.345Z,-6.22
2022-12-13T16:30:53.305Z,-5.46
2022-12-13T16:33:27.414Z,-5.20
2022-12-13T16:35:57.156Z,-4.92
2022-12-13T16:38:27.154Z,-5.21
2022-12-13T16:41:00.004Z,-4.91
2022-12-13T16:43:45.487Z,-5.06
2022-12-13T16:47:12.980Z,-5.36
2022-12-13T16:49:17.751Z,-5.41
2022-12-13T16:51:48.679Z,-5.45
2022-12-13T16:54:19.543Z,-5.33
2022-12-13T16:56:48.440Z,-5.74
2022-12-13T16:59:20.397Z,-5.51
2022-12-13T17:01:50.387Z,-5.65
2022-12-13T17:04:23.322Z,-6.17
2022-12-13T17:06:54.759Z,-6.06
2022-12-13T17:09:25.126Z,-5.97
2022-12-13T17:11:53.468Z,-6.03
2022-12-13T17:14:21.350Z,-6.13
2022-12-13T17:16:49.459Z,-6.16
2022-12-13T17:19:18.583Z,-6.29
2022-12-13T17:21:46.553Z,-6.23
2022-12-13T17:24:15.640Z,-6.22
2022-12-13T17:26:53.825Z,-6.41
2022-12-13T17:29:25.077Z,-6.36
2022-12-13T17:31:53.681Z,-6.12
2022-12-13T17:34:21.915Z,-6.08
2022-12-13T17:36:49.964Z,-5.33
2022-12-13T17:39:18.162Z,-4.94
2022-12-13T17:41:55.038Z,-4.56
2022-12-13T17:44:27.099Z,-4.46
2022-12-13T17:46:55.944Z,-4.50
2022-12-13T17:49:25.163Z,-4.37
2022-12-13T17:51:54.732Z,-4.40
2022-12-13T17:54:24.817Z,-4.33
2022-12-13T17:56:54.657Z,-4.52
2022-12-13T17:59:23.517Z,-4.65
2022-12-13T18:01:52.610Z,-4.28
2022-12-13T18:04:21.706Z,-4.45
2022-12-13T18:06:52.834Z,-4.53
2022-12-13T18:09:21.259Z,-4.42
2022-12-13T18:11:49.829Z,-4.82
2022-12-13T18:14:19.222Z,-4.85
2022-12-13T18:16:48.102Z,-5.12
2022-12-13T18:19:16.645Z,-5.13
2022-12-13T18:21:45.393Z,-5.17
2022-12-13T18:24:14.679Z,-5.31
2022-12-13T18:26:42.909Z,-5.17
2022-12-13T18:29:11.240Z,-5.13
2022-12-13T18:31:39.993Z,-5.56
2022-12-13T18:34:09.079Z,-5.17
2022-12-13T18:36:39.865Z,-5.52
2022-12-13T18:39:08.325Z,-5.11
2022-12-13T18:41:36.637Z,-5.16
2022-12-13T18:44:10.599Z,-5.20
2022-12-13T18:46:43.378Z,-5.42
2022-12-13T18:49:14.217Z,-5.33
2022-12-13T18:51:42.759Z,-4.98
2022-12-13T18:54:10.896Z,-5.14
2022-12-13T18:56:39.225Z,-5.14
2022-12-13T18:59:07.857Z,-4.89
2022-12-13T19:01:36.114Z,-4.88
2022-12-13T19:04:04.545Z,-5.05
2022-12-13T19:06:33.689Z,-4.62
2022-12-13T19:09:01.888Z,-4.76
2022-12-13T19:11:30.589Z,-4.78
2022-12-13T19:14:01.007Z,-4.73
2022-12-13T19:16:29.247Z,-4.85
2022-12-13T19:18:59.408Z,-4.84
2022-12-13T19:21:27.692Z,-5.10
2022-12-13T19:24:01.280Z,-4.86
2022-12-13T19:26:30.183Z,-4.84
2022-12-13T19:28:59.568Z,-5.01
2022-12-13T19:31:32.372Z,-4.82
2022-12-13T19:34:04.439Z,-4.87
2022-12-13T19:36:33.386Z,-4.77
2022-12-13T19:39:01.778Z,-5.12
2022-12-13T19:41:32.436Z,-4.87
2022-12-13T19:44:04.916Z,-4.93
2022-12-13T19:46:33.983Z,-4.95
2022-12-13T19:49:02.576Z,-4.98
2022-12-13T19:51:37.413Z,-5.07
2022-12-13T19:54:08.398Z,-4.76
2022-12-13T19:56:37.107Z,-4.79
2022-12-13T19:59:05.900Z,-4.79
2022-12-13T20:01:34.154Z,-5.05
2022-12-13T20:04:02.548Z,-5.01
2022-12-13T20:06:30.661Z,-5.15
2022-12-13T20:08:59.029Z,-5.18
2022-12-13T20:11:27.307Z,-5.18
2022-12-13T20:13:55.947Z,-5.26
2022-12-13T20:16:26.935Z,-5.61
2022-12-13T20:18:58.848Z,-5.21
2022-12-13T20:21:28.955Z,-5.53
2022-12-13T20:23:58.185Z,-5.23
2022-12-13T20:26:30.112Z,-5.28
2022-12-13T20:28:58.443Z,-5.58
2022-12-13T20:31:33.181Z,-5.30
2022-12-13T20:34:06.856Z,-5.31
2022-12-13T20:36:35.616Z,-5.44
2022-12-13T20:39:08.257Z,-5.35
2022-12-13T20:41:37.209Z,-5.37
2022-12-13T20:44:09.984Z,-5.62
2022-12-13T20:46:38.990Z,-5.41
2022-12-13T20:49:09.373Z,-5.35
2022-12-13T20:51:41.438Z,-5.43
2022-12-13T20:54:09.914Z,-5.35
2022-12-13T20:56:40.279Z,-5.57
2022-12-13T20:59:12.517Z,-5.25
2022-12-13T21:01:42.162Z,-5.21
2022-12-13T21:04:11.429Z,-5.17
2022-12-13T21:06:41.924Z,-5.10
2022-12-13T21:09:11.860Z,-5.20
2022-12-13T21:11:47.180Z,-5.18
2022-12-13T21:14:22.256Z,-5.22
2022-12-13T21:17:02.780Z,-5.17
2022-12-13T21:19:38.909Z,-5.75
2022-12-13T21:22:08.970Z,-5.55
2022-12-13T21:24:37.227Z,-5.30
2022-12-13T21:27:06.488Z,-5.34
2022-12-13T21:29:34.624Z,-5.25
2022-12-13T21:32:03.195Z,-5.34
2022-12-13T21:34:31.347Z,-5.37
2022-12-13T21:36:59.462Z,-5.57
2022-12-13T21:39:31.073Z,-5.71
2022-12-13T21:41:59.150Z,-5.76
2022-12-13T21:44:27.427Z,-5.96
2022-12-13T21:47:16.613Z,-5.87
2022-12-13T21:49:51.152Z,-6.38
2022-12-13T21:52:30.981Z,-6.20
2022-12-13T21:55:37.398Z,-6.31
2022-12-13T21:58:13.854Z,-6.48
2022-12-13T22:00:42.043Z,-6.67
2022-12-13T22:03:10.913Z,-6.75
2022-12-13T22:05:38.882Z,-6.74
2022-12-13T22:08:07.265Z,-6.66
2022-12-13T22:10:55.674Z,-6.73
2022-12-13T22:13:23.719Z,-6.70
2022-12-13T22:15:53.046Z,-6.82
2022-12-13T22:18:21.385Z,-7.59
2022-12-13T22:20:59.549Z,-7.22
2022-12-13T22:23:27.512Z,-7.23
2022-12-13T22:25:55.756Z,-7.32
2022-12-13T22:28:24.144Z,-7.66
2022-12-13T22:30:55.693Z,-7.84
2022-12-13T22:33:23.729Z,-8.03
2022-12-13T22:35:51.806Z,-7.98
2022-12-13T22:38:19.719Z,-8.48
2022-12-13T22:40:47.615Z,-8.28
2022-12-13T22:43:20.449Z,-8.87
2022-12-13T22:45:49.079Z,-8.19
2022-12-13T22:48:19.457Z,-8.45
2022-12-13T22:50:47.331Z,-8.17
2022-12-13T22:53:15.180Z,-8.01
2022-12-13T22:55:43.309Z,-8.03
2022-12-13T22:58:14.552Z,-8.33
2022-12-13T23:00:42.560Z,-8.00
2022-12-13T23:03:10.621Z,-7.99
2022-12-13T23:05:38.402Z,-8.02
2022-12-13T23:08:06.246Z,-8.02
2022-12-13T23:10:53.908Z,-7.98
2022-12-13T23:13:21.863Z,-7.90
2022-12-13T23:15:49.809Z,-8.17
2022-12-13T23:18:17.848Z,-7.91
2022-12-13T23:20:46.022Z,-8.13
2022-12-13T23:23:16.480Z,-8.20
2022-12-13T23:25:44.493Z,-7.87
2022-12-13T23:28:16.988Z,-7.80
2022-12-13T23:30:45.261Z,-7.84
2022-12-13T23:33:13.068Z,-7.91
2022-12-13T23:35:41.108Z,-8.30
2022-12-13T23:38:09.335Z,-8.34
2022-12-13T23:40:37.130Z,-8.34
2022-12-13T23:43:05.143Z,-8.06
2022-12-13T23:45:33.172Z,-8.48
2022-12-13T23:48:01.083Z,-8.83
2022-12-13T23:50:28.951Z,-8.46
2022-12-13T23:52:57.609Z,-8.43
2022-12-13T23:55:25.504Z,-8.80
2022-12-13T23:57:53.342Z,-8.68
